sensor_id;sensor_type;location;lat;lon;timestamp;pressure;altitude;pressure_sealevel;temperature;humidity
50790;BME280;37287;47.554;7.844;2023-07-31T00:00:27;98061.41;;;15.91;94.50
50790;BME280;37287;47.554;7.844;2023-07-31T00:03:18;98061.38;;;15.94;98.78
50790;BME280;37287;47.554;7.844;2023-07-31T00:06:09;98068.81;;;15.90;98.04
50790;BME280;37287;47.554;7.844;2023-07-31T00:08:59;98072.38;;;15.87;96.57
50790;BME280;37287;47.554;7.844;2023-07-31T00:11:50;98062.75;;;15.72;94.21
50790;BME280;37287;47.554;7.844;2023-07-31T00:14:41;98068.00;;;15.52;94.90
50790;BME280;37287;47.554;7.844;2023-07-31T00:17:16;98056.00;;;15.42;94.15
50790;BME280;37287;47.554;7.844;2023-07-31T00:19:43;98045.59;;;15.29;95.08
50790;BME280;37287;47.554;7.844;2023-07-31T00:22:09;98049.94;;;15.23;95.23
50790;BME280;37287;47.554;7.844;2023-07-31T00:25:00;98045.97;;;15.32;96.16
50790;BME280;37287;47.554;7.844;2023-07-31T00:27:51;98055.38;;;15.23;95.85
50790;BME280;37287;47.554;7.844;2023-07-31T00:30:41;98047.53;;;15.33;96.40
50790;BME280;37287;47.554;7.844;2023-07-31T00:33:34;98048.22;;;15.44;95.71
50790;BME280;37287;47.554;7.844;2023-07-31T00:36:25;98059.41;;;15.53;98.38
50790;BME280;37287;47.554;7.844;2023-07-31T00:39:16;98055.50;;;15.54;98.69
50790;BME280;37287;47.554;7.844;2023-07-31T00:42:07;98057.44;;;15.57;100.00
50790;BME280;37287;47.554;7.844;2023-07-31T00:44:57;98055.13;;;15.52;97.12
50790;BME280;37287;47.554;7.844;2023-07-31T00:47:48;98038.34;;;15.54;96.23
50790;BME280;37287;47.554;7.844;2023-07-31T00:50:41;98036.84;;;15.49;94.75
50790;BME280;37287;47.554;7.844;2023-07-31T00:53:33;98038.41;;;15.50;94.78
50790;BME280;37287;47.554;7.844;2023-07-31T00:56:27;98038.41;;;15.50;95.38
50790;BME280;37287;47.554;7.844;2023-07-31T00:59:18;98039.56;;;15.49;95.02
50790;BME280;37287;47.554;7.844;2023-07-31T01:02:09;98038.41;;;15.50;97.31
50790;BME280;37287;47.554;7.844;2023-07-31T01:05:01;98032.28;;;15.39;94.59
50790;BME280;37287;47.554;7.844;2023-07-31T01:08:04;98029.59;;;15.32;94.91
50790;BME280;37287;47.554;7.844;2023-07-31T01:11:02;98038.66;;;15.21;94.05
50790;BME280;37287;47.554;7.844;2023-07-31T01:13:55;98030.84;;;15.23;94.40
50790;BME280;37287;47.554;7.844;2023-07-31T01:16:47;98027.84;;;15.07;94.56
50790;BME280;37287;47.554;7.844;2023-07-31T01:19:39;98029.19;;;14.84;95.27
50790;BME280;37287;47.554;7.844;2023-07-31T01:26:03;98025.47;;;14.53;97.13
50790;BME280;37287;47.554;7.844;2023-07-31T01:31:51;98009.69;;;14.19;99.70
50790;BME280;37287;47.554;7.844;2023-07-31T01:34:44;98012.44;;;14.12;100.00
50790;BME280;37287;47.554;7.844;2023-07-31T01:37:37;98008.97;;;14.11;100.00
50790;BME280;37287;47.554;7.844;2023-07-31T01:40:19;98007.72;;;14.23;100.00
50790;BME280;37287;47.554;7.844;2023-07-31T01:43:11;98008.50;;;14.23;100.00
50790;BME280;37287;47.554;7.844;2023-07-31T01:46:02;98005.81;;;14.20;100.00
50790;BME280;37287;47.554;7.844;2023-07-31T01:48:52;98001.47;;;14.30;99.48
50790;BME280;37287;47.554;7.844;2023-07-31T01:51:42;97995.63;;;14.31;99.50
50790;BME280;37287;47.554;7.844;2023-07-31T01:54:35;98005.69;;;14.45;98.92
50790;BME280;37287;47.554;7.844;2023-07-31T01:57:27;98003.31;;;14.51;99.02
50790;BME280;37287;47.554;7.844;2023-07-31T02:00:17;97987.78;;;14.40;99.02
50790;BME280;37287;47.554;7.844;2023-07-31T02:03:08;97990.59;;;14.26;98.91
50790;BME280;37287;47.554;7.844;2023-07-31T02:17:25;97972.38;;;14.12;98.77
50790;BME280;37287;47.554;7.844;2023-07-31T02:19:56;97979.41;;;14.02;99.38
50790;BME280;37287;47.554;7.844;2023-07-31T02:22:22;97977.09;;;14.01;99.54
50790;BME280;37287;47.554;7.844;2023-07-31T02:24:49;97980.22;;;14.03;99.60
50790;BME280;37287;47.554;7.844;2023-07-31T02:27:39;97971.34;;;13.84;99.69
50790;BME280;37287;47.554;7.844;2023-07-31T02:30:30;97970.91;;;13.93;100.00
50790;BME280;37287;47.554;7.844;2023-07-31T02:33:23;97970.13;;;13.92;99.65
50790;BME280;37287;47.554;7.844;2023-07-31T02:36:15;97970.88;;;13.97;100.00
50790;BME280;37287;47.554;7.844;2023-07-31T02:39:06;97963.84;;;14.10;100.00
50790;BME280;37287;47.554;7.844;2023-07-31T02:41:57;97969.59;;;14.19;100.00
50790;BME280;37287;47.554;7.844;2023-07-31T02:44:48;97958.72;;;14.23;100.00
50790;BME280;37287;47.554;7.844;2023-07-31T02:47:41;97958.31;;;14.24;99.87
50790;BME280;37287;47.554;7.844;2023-07-31T02:50:33;97962.97;;;14.27;100.00
50790;BME280;37287;47.554;7.844;2023-07-31T02:53:23;97964.50;;;14.28;100.00
50790;BME280;37287;47.554;7.844;2023-07-31T02:56:13;97956.75;;;14.27;100.00
50790;BME280;37287;47.554;7.844;2023-07-31T02:59:03;97960.63;;;14.30;100.00
50790;BME280;37287;47.554;7.844;2023-07-31T03:01:54;97963.75;;;14.24;98.65
50790;BME280;37287;47.554;7.844;2023-07-31T03:04:46;97973.50;;;14.25;98.01
50790;BME280;37287;47.554;7.844;2023-07-31T03:07:39;97975.81;;;14.27;100.00
50790;BME280;37287;47.554;7.844;2023-07-31T03:10:29;97974.66;;;14.24;99.77
50790;BME280;37287;47.554;7.844;2023-07-31T03:13:20;97975.00;;;14.26;98.85
50790;BME280;37287;47.554;7.844;2023-07-31T03:16:11;97983.19;;;14.26;99.28
50790;BME280;37287;47.554;7.844;2023-07-31T03:19:04;97994.06;;;14.26;99.27
50790;BME280;37287;47.554;7.844;2023-07-31T03:21:55;97982.03;;;14.27;100.00
50790;BME280;37287;47.554;7.844;2023-07-31T03:24:25;97985.53;;;14.24;100.00
50790;BME280;37287;47.554;7.844;2023-07-31T03:26:52;97988.25;;;14.24;100.00
50790;BME280;37287;47.554;7.844;2023-07-31T03:29:21;97985.53;;;14.24;100.00
50790;BME280;37287;47.554;7.844;2023-07-31T03:32:11;97986.34;;;14.21;100.00
50790;BME280;37287;47.554;7.844;2023-07-31T03:35:01;97996.84;;;14.23;100.00
50790;BME280;37287;47.554;7.844;2023-07-31T03:37:52;97997.22;;;14.21;100.00
50790;BME280;37287;47.554;7.844;2023-07-31T03:40:42;97991.00;;;14.24;100.00
50790;BME280;37287;47.554;7.844;2023-07-31T03:43:32;97990.63;;;14.22;100.00
50790;BME280;37287;47.554;7.844;2023-07-31T03:46:26;97991.38;;;14.19;100.00
50790;BME280;37287;47.554;7.844;2023-07-31T03:49:17;97987.91;;;14.15;100.00
50790;BME280;37287;47.554;7.844;2023-07-31T03:52:07;97988.72;;;14.12;100.00
50790;BME280;37287;47.554;7.844;2023-07-31T03:54:58;97982.47;;;14.15;100.00
50790;BME280;37287;47.554;7.844;2023-07-31T03:57:49;97984.06;;;14.13;100.00
50790;BME280;37287;47.554;7.844;2023-07-31T04:00:40;97986.06;;;13.98;100.00
50790;BME280;37287;47.554;7.844;2023-07-31T04:03:33;97984.59;;;13.79;100.00
50790;BME280;37287;47.554;7.844;2023-07-31T04:06:25;97987.31;;;13.64;100.00
50790;BME280;37287;47.554;7.844;2023-07-31T04:09:15;97983.84;;;13.67;100.00
50790;BME280;37287;47.554;7.844;2023-07-31T04:12:08;97985.00;;;13.63;100.00
50790;BME280;37287;47.554;7.844;2023-07-31T04:14:59;97977.28;;;13.50;100.00
50790;BME280;37287;47.554;7.844;2023-07-31T04:17:49;97982.72;;;13.50;100.00
50790;BME280;37287;47.554;7.844;2023-07-31T04:20:40;97986.16;;;13.65;100.00
50790;BME280;37287;47.554;7.844;2023-07-31T04:23:30;97988.84;;;13.80;100.00
50790;BME280;37287;47.554;7.844;2023-07-31T04:26:22;97988.06;;;13.75;100.00
50790;BME280;37287;47.554;7.844;2023-07-31T04:29:12;97996.59;;;13.81;100.00
50790;BME280;37287;47.554;7.844;2023-07-31T04:32:03;97992.72;;;13.82;100.00
50790;BME280;37287;47.554;7.844;2023-07-31T04:34:56;97992.31;;;13.84;100.00
50790;BME280;37287;47.554;7.844;2023-07-31T04:37:47;97988.81;;;13.87;100.00
50790;BME280;37287;47.554;7.844;2023-07-31T04:40:39;97984.94;;;13.84;100.00
50790;BME280;37287;47.554;7.844;2023-07-31T04:43:30;97984.16;;;13.84;100.00
50790;BME280;37287;47.554;7.844;2023-07-31T04:46:21;97990.41;;;13.70;100.00
50790;BME280;37287;47.554;7.844;2023-07-31T04:49:11;97982.69;;;13.54;100.00
50790;BME280;37287;47.554;7.844;2023-07-31T04:52:04;97981.94;;;13.46;100.00
50790;BME280;37287;47.554;7.844;2023-07-31T04:54:55;97985.06;;;13.37;100.00
50790;BME280;37287;47.554;7.844;2023-07-31T04:57:45;97985.06;;;13.41;100.00
50790;BME280;37287;47.554;7.844;2023-07-31T05:00:38;97988.91;;;13.54;100.00
50790;BME280;37287;47.554;7.844;2023-07-31T05:03:28;97993.94;;;13.67;100.00
50790;BME280;37287;47.554;7.844;2023-07-31T05:06:21;97993.50;;;13.75;100.00
50790;BME280;37287;47.554;7.844;2023-07-31T05:09:13;97997.03;;;13.76;100.00
50790;BME280;37287;47.554;7.844;2023-07-31T05:12:07;97993.50;;;13.79;100.00
50790;BME280;37287;47.554;7.844;2023-07-31T05:14:57;97996.25;;;13.72;100.00
50790;BME280;37287;47.554;7.844;2023-07-31T05:17:48;98001.31;;;13.77;100.00
50790;BME280;37287;47.554;7.844;2023-07-31T05:20:39;98007.50;;;13.85;100.00
50790;BME280;37287;47.554;7.844;2023-07-31T05:23:30;98004.34;;;13.93;100.00
50790;BME280;37287;47.554;7.844;2023-07-31T05:26:23;98003.94;;;13.99;100.00
50790;BME280;37287;47.554;7.844;2023-07-31T05:29:15;98002.03;;;13.96;100.00
50790;BME280;37287;47.554;7.844;2023-07-31T05:32:31;98015.19;;;14.01;100.00
50790;BME280;37287;47.554;7.844;2023-07-31T05:35:46;98011.28;;;14.09;100.00
50790;BME280;37287;47.554;7.844;2023-07-31T05:38:38;98001.16;;;14.09;100.00
50790;BME280;37287;47.554;7.844;2023-07-31T05:41:28;98006.28;;;13.97;100.00
50790;BME280;37287;47.554;7.844;2023-07-31T05:44:19;98003.53;;;14.00;100.00
50790;BME280;37287;47.554;7.844;2023-07-31T05:47:10;97994.97;;;14.02;100.00
50790;BME280;37287;47.554;7.844;2023-07-31T05:50:01;97998.44;;;14.13;100.00
50790;BME280;37287;47.554;7.844;2023-07-31T05:52:52;97987.16;;;14.15;100.00
50790;BME280;37287;47.554;7.844;2023-07-31T05:55:45;97975.53;;;14.03;100.00
50790;BME280;37287;47.554;7.844;2023-07-31T05:58:37;97990.25;;;14.17;100.00
50790;BME280;37287;47.554;7.844;2023-07-31T06:01:29;97989.78;;;14.33;100.00
50790;BME280;37287;47.554;7.844;2023-07-31T06:04:21;97985.41;;;14.46;100.00
50790;BME280;37287;47.554;7.844;2023-07-31T06:07:12;97990.44;;;14.55;100.00
50790;BME280;37287;47.554;7.844;2023-07-31T06:09:39;97983.38;;;14.65;100.00
50790;BME280;37287;47.554;7.844;2023-07-31T06:12:06;97981.41;;;14.69;100.00
50790;BME280;37287;47.554;7.844;2023-07-31T06:14:56;97985.25;;;14.75;100.00
50790;BME280;37287;47.554;7.844;2023-07-31T06:17:49;97989.84;;;14.89;100.00
50790;BME280;37287;47.554;7.844;2023-07-31T06:20:40;97985.84;;;15.01;100.00
50790;BME280;37287;47.554;7.844;2023-07-31T06:23:33;97993.09;;;15.18;100.00
50790;BME280;37287;47.554;7.844;2023-07-31T06:26:26;97990.09;;;15.47;100.00
50790;BME280;37287;47.554;7.844;2023-07-31T06:29:19;97987.97;;;15.62;100.00
50790;BME280;37287;47.554;7.844;2023-07-31T06:32:10;97981.31;;;15.67;100.00
50790;BME280;37287;47.554;7.844;2023-07-31T06:35:02;97976.22;;;15.69;99.35
50790;BME280;37287;47.554;7.844;2023-07-31T06:37:52;97973.50;;;15.65;99.41
50790;BME280;37287;47.554;7.844;2023-07-31T06:40:42;97967.59;;;15.74;99.64
50790;BME280;37287;47.554;7.844;2023-07-31T06:43:32;97955.06;;;15.76;99.88
50790;BME280;37287;47.554;7.844;2023-07-31T06:46:24;97953.38;;;15.90;100.00
50790;BME280;37287;47.554;7.844;2023-07-31T06:49:15;97952.16;;;15.94;98.38
50790;BME280;37287;47.554;7.844;2023-07-31T06:52:06;97951.97;;;16.09;98.50
50790;BME280;37287;47.554;7.844;2023-07-31T06:57:54;97955.91;;;16.35;97.49
50790;BME280;37287;47.554;7.844;2023-07-31T07:00:45;97948.69;;;16.48;96.83
50790;BME280;37287;47.554;7.844;2023-07-31T07:03:38;97950.50;;;16.59;95.57
50790;BME280;37287;47.554;7.844;2023-07-31T07:06:29;97950.91;;;16.81;96.38
50790;BME280;37287;47.554;7.844;2023-07-31T07:09:20;97959.56;;;17.03;96.05
50790;BME280;37287;47.554;7.844;2023-07-31T07:12:11;97956.31;;;17.32;94.31
50790;BME280;37287;47.554;7.844;2023-07-31T07:15:02;97962.03;;;17.61;93.18
50790;BME280;37287;47.554;7.844;2023-07-31T07:17:52;97960.78;;;17.86;93.10
50790;BME280;37287;47.554;7.844;2023-07-31T07:20:54;97964.03;;;18.01;92.46
50790;BME280;37287;47.554;7.844;2023-07-31T07:23:47;97979.75;;;18.17;92.36
50790;BME280;37287;47.554;7.844;2023-07-31T07:26:40;97983.19;;;18.21;91.54
50790;BME280;37287;47.554;7.844;2023-07-31T07:29:34;97973.19;;;18.31;91.39
50790;BME280;37287;47.554;7.844;2023-07-31T07:32:24;97976.41;;;18.62;90.70
50790;BME280;37287;47.554;7.844;2023-07-31T07:35:15;97966.22;;;18.96;89.09
50790;BME280;37287;47.554;7.844;2023-07-31T07:38:07;97968.84;;;19.32;86.69
50790;BME280;37287;47.554;7.844;2023-07-31T07:40:57;97969.00;;;19.41;84.56
50790;BME280;37287;47.554;7.844;2023-07-31T07:43:47;97961.28;;;19.36;85.83
50790;BME280;37287;47.554;7.844;2023-07-31T07:46:39;97952.84;;;19.44;84.71
50790;BME280;37287;47.554;7.844;2023-07-31T07:49:29;97953.78;;;19.53;84.67
50790;BME280;37287;47.554;7.844;2023-07-31T07:52:20;97948.53;;;19.59;83.55
50790;BME280;37287;47.554;7.844;2023-07-31T07:55:10;97944.94;;;19.75;82.89
50790;BME280;37287;47.554;7.844;2023-07-31T07:58:01;97942.72;;;19.99;82.27
50790;BME280;37287;47.554;7.844;2023-07-31T08:00:51;97940.00;;;20.25;81.87
50790;BME280;37287;47.554;7.844;2023-07-31T08:03:42;97937.25;;;20.25;82.63
50790;BME280;37287;47.554;7.844;2023-07-31T08:06:33;97931.53;;;20.71;81.48
50790;BME280;37287;47.554;7.844;2023-07-31T08:09:06;97938.66;;;20.94;78.75
50790;BME280;37287;47.554;7.844;2023-07-31T08:11:35;97941.84;;;20.67;79.93
50790;BME280;37287;47.554;7.844;2023-07-31T08:14:27;97935.16;;;20.29;81.79
50790;BME280;37287;47.554;7.844;2023-07-31T08:17:17;97934.50;;;20.51;79.98
50790;BME280;37287;47.554;7.844;2023-07-31T08:20:32;97941.41;;;20.30;74.35
50790;BME280;37287;47.554;7.844;2023-07-31T08:23:23;97927.00;;;20.38;78.36
50790;BME280;37287;47.554;7.844;2023-07-31T08:26:15;97918.22;;;20.43;79.27
50790;BME280;37287;47.554;7.844;2023-07-31T08:29:06;97926.91;;;20.55;78.13
50790;BME280;37287;47.554;7.844;2023-07-31T08:31:40;97908.09;;;20.15;79.94
50790;BME280;37287;47.554;7.844;2023-07-31T08:34:08;97904.56;;;20.40;79.75
50790;BME280;37287;47.554;7.844;2023-07-31T08:36:39;97900.84;;;20.47;79.12
50790;BME280;37287;47.554;7.844;2023-07-31T08:39:29;97893.78;;;20.45;77.71
50790;BME280;37287;47.554;7.844;2023-07-31T08:42:20;97895.22;;;20.50;78.36
50790;BME280;37287;47.554;7.844;2023-07-31T08:45:14;97908.75;;;20.57;77.03
50790;BME280;37287;47.554;7.844;2023-07-31T08:47:50;97908.97;;;20.63;76.79
50790;BME280;37287;47.554;7.844;2023-07-31T08:50:19;97913.91;;;20.55;77.79
50790;BME280;37287;47.554;7.844;2023-07-31T08:52:47;97912.38;;;20.54;77.26
50790;BME280;37287;47.554;7.844;2023-07-31T08:55:16;97908.50;;;20.77;74.50
50790;BME280;37287;47.554;7.844;2023-07-31T08:58:07;97907.13;;;20.95;74.82
50790;BME280;37287;47.554;7.844;2023-07-31T09:01:01;97904.13;;;21.15;74.78
50790;BME280;37287;47.554;7.844;2023-07-31T09:03:51;97910.84;;;21.36;72.58
50790;BME280;37287;47.554;7.844;2023-07-31T09:06:44;97906.81;;;21.28;73.05
50790;BME280;37287;47.554;7.844;2023-07-31T09:09:35;97895.88;;;21.37;72.44
50790;BME280;37287;47.554;7.844;2023-07-31T09:12:27;97901.44;;;21.46;71.35
50790;BME280;37287;47.554;7.844;2023-07-31T09:15:19;97895.41;;;21.17;72.13
50790;BME280;37287;47.554;7.844;2023-07-31T09:18:11;97901.63;;;20.95;71.86
50790;BME280;37287;47.554;7.844;2023-07-31T09:21:04;97885.97;;;21.05;72.30
50790;BME280;37287;47.554;7.844;2023-07-31T09:23:54;97881.81;;;21.00;70.91
50790;BME280;37287;47.554;7.844;2023-07-31T09:26:45;97875.56;;;21.00;71.00
50790;BME280;37287;47.554;7.844;2023-07-31T09:29:35;97870.31;;;21.15;71.44
50790;BME280;37287;47.554;7.844;2023-07-31T09:32:26;97885.28;;;21.13;71.82
50790;BME280;37287;47.554;7.844;2023-07-31T09:34:53;97872.16;;;21.18;70.18
50790;BME280;37287;47.554;7.844;2023-07-31T09:37:26;97874.59;;;21.16;70.20
50790;BME280;37287;47.554;7.844;2023-07-31T09:39:57;97869.09;;;21.16;70.27
50790;BME280;37287;47.554;7.844;2023-07-31T09:42:51;97866.59;;;21.08;69.87
50790;BME280;37287;47.554;7.844;2023-07-31T09:45:44;97862.84;;;21.02;68.60
50790;BME280;37287;47.554;7.844;2023-07-31T09:48:15;97856.28;;;21.22;68.16
50790;BME280;37287;47.554;7.844;2023-07-31T09:50:46;97857.63;;;21.17;68.75
50790;BME280;37287;47.554;7.844;2023-07-31T09:53:37;97844.56;;;21.08;68.25
50790;BME280;37287;47.554;7.844;2023-07-31T09:56:08;97835.91;;;21.19;68.21
50790;BME280;37287;47.554;7.844;2023-07-31T09:59:00;97831.75;;;21.15;67.60
50790;BME280;37287;47.554;7.844;2023-07-31T10:01:52;97824.34;;;21.24;67.25
50790;BME280;37287;47.554;7.844;2023-07-31T10:04:49;97817.03;;;21.30;67.10
50790;BME280;37287;47.554;7.844;2023-07-31T10:07:42;97819.91;;;21.27;66.43
50790;BME280;37287;47.554;7.844;2023-07-31T10:10:38;97821.72;;;21.21;66.41
50790;BME280;37287;47.554;7.844;2023-07-31T10:13:32;97822.94;;;21.20;65.50
50790;BME280;37287;47.554;7.844;2023-07-31T10:16:24;97810.13;;;21.26;64.54
50790;BME280;37287;47.554;7.844;2023-07-31T10:19:05;97811.59;;;21.40;64.21
50790;BME280;37287;47.554;7.844;2023-07-31T10:21:32;97800.19;;;21.51;63.26
50790;BME280;37287;47.554;7.844;2023-07-31T10:24:04;97797.09;;;21.80;63.13
50790;BME280;37287;47.554;7.844;2023-07-31T10:26:32;97787.53;;;22.03;61.81
50790;BME280;37287;47.554;7.844;2023-07-31T10:29:05;97793.53;;;22.11;62.20
50790;BME280;37287;47.554;7.844;2023-07-31T10:31:35;97794.03;;;22.19;61.94
50790;BME280;37287;47.554;7.844;2023-07-31T10:34:26;97783.91;;;22.25;61.35
50790;BME280;37287;47.554;7.844;2023-07-31T10:37:28;97786.75;;;22.53;59.76
50790;BME280;37287;47.554;7.844;2023-07-31T10:40:24;97782.59;;;22.48;58.82
50790;BME280;37287;47.554;7.844;2023-07-31T10:43:25;97779.69;;;22.52;57.02
50790;BME280;37287;47.554;7.844;2023-07-31T10:46:20;97773.25;;;22.64;59.51
50790;BME280;37287;47.554;7.844;2023-07-31T10:49:20;97765.91;;;22.70;55.94
50790;BME280;37287;47.554;7.844;2023-07-31T10:52:12;97760.69;;;22.91;59.17
50790;BME280;37287;47.554;7.844;2023-07-31T10:55:15;97758.81;;;23.15;56.46
50790;BME280;37287;47.554;7.844;2023-07-31T10:58:08;97758.97;;;23.02;57.57
50790;BME280;37287;47.554;7.844;2023-07-31T11:01:03;97751.00;;;23.14;57.47
50790;BME280;37287;47.554;7.844;2023-07-31T11:03:56;97755.91;;;23.19;56.67
50790;BME280;37287;47.554;7.844;2023-07-31T11:07:01;97752.25;;;22.85;56.60
50790;BME280;37287;47.554;7.844;2023-07-31T11:09:31;97748.88;;;22.81;57.38
50790;BME280;37287;47.554;7.844;2023-07-31T11:11:59;97749.94;;;22.74;57.87
50790;BME280;37287;47.554;7.844;2023-07-31T11:14:56;97755.78;;;22.76;57.47
50790;BME280;37287;47.554;7.844;2023-07-31T11:17:46;97741.84;;;22.71;57.05
50790;BME280;37287;47.554;7.844;2023-07-31T11:20:39;97731.41;;;22.65;57.80
50790;BME280;37287;47.554;7.844;2023-07-31T11:23:30;97723.28;;;22.71;58.60
50790;BME280;37287;47.554;7.844;2023-07-31T11:26:07;97720.81;;;22.73;58.64
50790;BME280;37287;47.554;7.844;2023-07-31T11:28:34;97716.50;;;22.81;57.24
50790;BME280;37287;47.554;7.844;2023-07-31T11:31:27;97726.00;;;22.80;57.50
50790;BME280;37287;47.554;7.844;2023-07-31T11:34:17;97721.56;;;22.83;57.30
50790;BME280;37287;47.554;7.844;2023-07-31T11:37:11;97711.00;;;22.91;57.41
50790;BME280;37287;47.554;7.844;2023-07-31T11:40:02;97710.63;;;23.07;57.80
50790;BME280;37287;47.554;7.844;2023-07-31T11:42:57;97711.19;;;23.39;56.04
50790;BME280;37287;47.554;7.844;2023-07-31T11:45:49;97711.78;;;23.43;54.17
50790;BME280;37287;47.554;7.844;2023-07-31T11:48:39;97704.72;;;23.42;56.38
50790;BME280;37287;47.554;7.844;2023-07-31T11:51:30;97693.72;;;23.33;56.69
50790;BME280;37287;47.554;7.844;2023-07-31T11:54:21;97695.56;;;23.27;56.47
50790;BME280;37287;47.554;7.844;2023-07-31T11:57:13;97685.47;;;23.24;56.26
50790;BME280;37287;47.554;7.844;2023-07-31T12:00:06;97687.06;;;23.40;56.64
50790;BME280;37287;47.554;7.844;2023-07-31T12:02:40;97687.47;;;23.57;56.03
50790;BME280;37287;47.554;7.844;2023-07-31T12:05:13;97683.19;;;23.56;56.39
50790;BME280;37287;47.554;7.844;2023-07-31T12:10:37;97676.19;;;23.69;55.82
50790;BME280;37287;47.554;7.844;2023-07-31T12:13:27;97676.53;;;23.86;55.43
50790;BME280;37287;47.554;7.844;2023-07-31T12:16:20;97674.38;;;23.91;55.33
50790;BME280;37287;47.554;7.844;2023-07-31T12:19:10;97668.50;;;23.98;55.54
50790;BME280;37287;47.554;7.844;2023-07-31T12:22:02;97661.78;;;24.14;55.34
50790;BME280;37287;47.554;7.844;2023-07-31T12:25:04;97652.50;;;24.26;55.28
50790;BME280;37287;47.554;7.844;2023-07-31T12:27:54;97649.56;;;24.45;54.66
50790;BME280;37287;47.554;7.844;2023-07-31T12:30:46;97647.25;;;24.58;54.65
50790;BME280;37287;47.554;7.844;2023-07-31T12:33:18;97640.03;;;24.61;54.12
50790;BME280;37287;47.554;7.844;2023-07-31T12:35:47;97636.31;;;24.64;54.25
50790;BME280;37287;47.554;7.844;2023-07-31T12:38:38;97633.75;;;24.75;53.74
50790;BME280;37287;47.554;7.844;2023-07-31T12:41:31;97630.97;;;24.75;54.21
50790;BME280;37287;47.554;7.844;2023-07-31T12:44:22;97628.59;;;24.83;53.62
50790;BME280;37287;47.554;7.844;2023-07-31T12:47:12;97621.78;;;24.99;53.01
50790;BME280;37287;47.554;7.844;2023-07-31T12:50:07;97617.44;;;24.77;54.26
50790;BME280;37287;47.554;7.844;2023-07-31T12:52:57;97610.50;;;25.17;53.60
50790;BME280;37287;47.554;7.844;2023-07-31T12:55:51;97610.75;;;25.34;52.92
50790;BME280;37287;47.554;7.844;2023-07-31T12:58:41;97605.63;;;25.48;53.15
50790;BME280;37287;47.554;7.844;2023-07-31T13:01:33;97594.22;;;25.61;52.59
50790;BME280;37287;47.554;7.844;2023-07-31T13:04:23;97579.09;;;25.62;53.50
50790;BME280;37287;47.554;7.844;2023-07-31T13:07:14;97582.72;;;25.68;53.31
50790;BME280;37287;47.554;7.844;2023-07-31T13:10:05;97586.31;;;25.53;53.09
50790;BME280;37287;47.554;7.844;2023-07-31T13:12:34;97580.84;;;25.59;52.90
50790;BME280;37287;47.554;7.844;2023-07-31T13:15:25;97577.88;;;25.63;52.56
50790;BME280;37287;47.554;7.844;2023-07-31T13:18:18;97578.69;;;25.69;52.56
50790;BME280;37287;47.554;7.844;2023-07-31T13:20:55;97579.78;;;25.77;52.84
50790;BME280;37287;47.554;7.844;2023-07-31T13:23:22;97577.25;;;25.73;52.33
50790;BME280;37287;47.554;7.844;2023-07-31T13:25:48;97581.88;;;25.62;53.03
50790;BME280;37287;47.554;7.844;2023-07-31T13:28:39;97571.28;;;25.81;52.58
50790;BME280;37287;47.554;7.844;2023-07-31T13:31:29;97570.38;;;25.89;51.70
50790;BME280;37287;47.554;7.844;2023-07-31T13:34:20;97567.38;;;25.93;51.26
50790;BME280;37287;47.554;7.844;2023-07-31T13:37:13;97557.84;;;26.00;50.78
50790;BME280;37287;47.554;7.844;2023-07-31T13:40:04;97561.28;;;25.68;52.19
50790;BME280;37287;47.554;7.844;2023-07-31T13:42:56;97554.09;;;25.35;52.03
50790;BME280;37287;47.554;7.844;2023-07-31T13:45:46;97549.97;;;25.31;52.34
50790;BME280;37287;47.554;7.844;2023-07-31T13:48:37;97540.31;;;25.41;51.87
50790;BME280;37287;47.554;7.844;2023-07-31T13:51:27;97549.19;;;25.45;52.19
50790;BME280;37287;47.554;7.844;2023-07-31T13:58:27;97537.19;;;25.33;51.70
50790;BME280;37287;47.554;7.844;2023-07-31T14:00:58;97534.22;;;25.37;51.83
50790;BME280;37287;47.554;7.844;2023-07-31T14:03:51;97538.84;;;25.46;51.89
50790;BME280;37287;47.554;7.844;2023-07-31T14:06:43;97528.66;;;25.57;51.83
50790;BME280;37287;47.554;7.844;2023-07-31T14:09:34;97514.97;;;25.74;51.36
50790;BME280;37287;47.554;7.844;2023-07-31T14:12:26;97516.94;;;25.68;51.04
50790;BME280;37287;47.554;7.844;2023-07-31T14:15:17;97515.44;;;25.94;50.13
50790;BME280;37287;47.554;7.844;2023-07-31T14:17:49;97513.41;;;25.94;50.87
50790;BME280;37287;47.554;7.844;2023-07-31T14:20:40;97509.66;;;25.97;50.75
50790;BME280;37287;47.554;7.844;2023-07-31T14:23:31;97518.91;;;25.88;50.94
50790;BME280;37287;47.554;7.844;2023-07-31T14:26:22;97515.59;;;25.84;51.18
50790;BME280;37287;47.554;7.844;2023-07-31T14:29:13;97514.47;;;25.97;51.18
50790;BME280;37287;47.554;7.844;2023-07-31T14:32:03;97511.69;;;25.97;50.71
50790;BME280;37287;47.554;7.844;2023-07-31T14:34:32;97509.09;;;25.87;50.63
50790;BME280;37287;47.554;7.844;2023-07-31T14:37:26;97504.34;;;25.94;50.55
50790;BME280;37287;47.554;7.844;2023-07-31T14:40:18;97494.69;;;25.83;51.09
50790;BME280;37287;47.554;7.844;2023-07-31T14:43:09;97496.53;;;25.92;50.49
50790;BME280;37287;47.554;7.844;2023-07-31T14:45:44;97487.44;;;25.91;50.06
50790;BME280;37287;47.554;7.844;2023-07-31T14:48:36;97488.38;;;26.09;50.68
50790;BME280;37287;47.554;7.844;2023-07-31T14:51:27;97485.47;;;26.24;49.81
50790;BME280;37287;47.554;7.844;2023-07-31T14:54:18;97480.97;;;26.26;49.70
50790;BME280;37287;47.554;7.844;2023-07-31T14:57:09;97483.16;;;25.90;49.76
50790;BME280;37287;47.554;7.844;2023-07-31T14:59:59;97482.25;;;25.79;49.70
50790;BME280;37287;47.554;7.844;2023-07-31T15:02:50;97483.66;;;25.68;50.44
50790;BME280;37287;47.554;7.844;2023-07-31T15:05:21;97472.63;;;25.74;50.46
50790;BME280;37287;47.554;7.844;2023-07-31T15:08:11;97476.66;;;25.73;50.26
50790;BME280;37287;47.554;7.844;2023-07-31T15:11:03;97478.47;;;25.76;50.15
50790;BME280;37287;47.554;7.844;2023-07-31T15:13:55;97472.81;;;25.65;50.52
50790;BME280;37287;47.554;7.844;2023-07-31T15:16:48;97469.50;;;25.61;50.35